»·PEaware :: N528SV L52-L88

N528SV :: L52-L88

FLIGHT INFORMATION

Flight Status: Arrived
Operator: Privately registered:
United States
More flights under this callsign
Pilot: Oshane D. (17945)
Aircraft: CESSNA 172 SKYHAWK
(C172)
More flights by this aircraft type
Origin: L52 Oceano Co
United States
Destination: L88 New Cuyama
United States
More flights between these airports :: More routes between these airports
Route:
File this flight plan on PilotEdge
Remarks:
Altitude:
(Current/Filed)
3,500ft
Speed:
(Current/Filed)
120kts
Departed: 15-Feb-19 01:18 PM
Arrived: 15-Feb-19 02:01 PM
Distance/Time
Traveled:
47nm/0:43
Distance/Time
To Go:
Arrived

Flight Plot

Page will automatically refresh every two minutes.


Map Options




Map Legend


Flown Route
Filed Route
Departure Airport
Arrival Airport
Navaid (VOR, NDB)
Fix

Horizontal Profiles

Position Reports

Time Latitude Longitude Heading Altitude Ground
Speed
15-Feb-19 13:02 35.103497 -120.624070 35 17ft 0kts
15-Feb-19 13:03 35.103497 -120.624070 35 17ft 0kts
15-Feb-19 13:04 35.103497 -120.624070 35 17ft 0kts
15-Feb-19 13:05 35.103497 -120.624070 35 17ft 0kts
15-Feb-19 13:06 35.103499 -120.624069 38 17ft 0kts
15-Feb-19 13:07 35.103502 -120.624066 38 17ft 0kts
15-Feb-19 13:08 35.103505 -120.624063 38 17ft 0kts
15-Feb-19 13:09 35.103509 -120.624059 38 17ft 0kts
15-Feb-19 13:10 35.103512 -120.624056 38 17ft 0kts
15-Feb-19 13:11 35.103516 -120.624053 38 17ft 0kts
15-Feb-19 13:12 35.103519 -120.624049 38 17ft 0kts
15-Feb-19 13:13 35.103477 -120.623951 197 17ft 0kts
15-Feb-19 13:14 35.103167 -120.624105 174 17ft 6kts
15-Feb-19 13:15 35.101867 -120.622455 219 17ft 0kts
15-Feb-19 13:16 35.101751 -120.622767 303 17ft 0kts
15-Feb-19 13:17 35.104413 -120.629377 276 253ft 67kts
15-Feb-19 13:18 35.121199 -120.637748 51 1251ft 106kts
15-Feb-19 13:20 35.114608 -120.606050 127 2482ft 97kts
15-Feb-19 13:21 35.102332 -120.575485 117 3599ft 103kts
15-Feb-19 13:22 35.093590 -120.542179 84 4603ft 109kts
15-Feb-19 13:23 35.094088 -120.499928 87 5017ft 138kts
15-Feb-19 13:24 35.094899 -120.455379 87 4502ft 113kts
15-Feb-19 13:25 35.094873 -120.417923 96 3621ft 106kts
15-Feb-19 13:26 35.082954 -120.388828 131 3481ft 89kts
15-Feb-19 13:27 35.065927 -120.354444 126 3730ft 137kts
15-Feb-19 13:28 35.043833 -120.320570 138 2791ft 111kts
15-Feb-19 13:29 35.027647 -120.296535 187 3285ft 92kts
15-Feb-19 13:30 35.000374 -120.305466 208 3471ft 106kts
15-Feb-19 13:31 34.973267 -120.312299 183 3813ft 107kts
15-Feb-19 13:32 34.945869 -120.296148 154 3364ft 105kts
15-Feb-19 13:33 34.927231 -120.269899 103 3277ft 109kts
15-Feb-19 13:34 34.948479 -120.250749 7 4067ft 96kts
15-Feb-19 13:35 34.977098 -120.241775 11 4459ft 119kts
15-Feb-19 13:36 35.002923 -120.219592 87 4442ft 128kts
15-Feb-19 13:37 35.016563 -120.188371 18 3313ft 114kts
15-Feb-19 13:38 35.044520 -120.180453 5 2530ft 111kts
15-Feb-19 13:38 35.065866 -120.166436 38 2810ft 106kts
15-Feb-19 13:40 35.088687 -120.132451 50 3012ft 114kts
15-Feb-19 13:41 35.106399 -120.096969 86 2612ft 126kts
15-Feb-19 13:41 35.097731 -120.065144 119 2427ft 110kts
15-Feb-19 13:42 35.084593 -120.031697 120 2368ft 105kts
15-Feb-19 13:43 35.070516 -120.001578 126 2451ft 103kts
15-Feb-19 13:44 35.056893 -119.970513 115 2492ft 104kts
15-Feb-19 13:45 35.044108 -119.938941 120 2537ft 103kts
15-Feb-19 13:46 35.030463 -119.907883 126 2572ft 104kts
15-Feb-19 13:47 35.016781 -119.876766 117 2605ft 105kts
15-Feb-19 13:48 35.003862 -119.843800 121 2564ft 105kts
15-Feb-19 13:49 34.989093 -119.812955 123 2584ft 104kts
15-Feb-19 13:50 34.976728 -119.782472 119 2612ft 100kts
15-Feb-19 13:51 34.964674 -119.752162 119 2754ft 96kts
15-Feb-19 13:52 34.953213 -119.722891 118 2865ft 98kts
15-Feb-19 13:53 34.939852 -119.693434 126 2809ft 97kts
15-Feb-19 13:54 34.928423 -119.665242 119 3034ft 94kts
15-Feb-19 13:55 34.914451 -119.653808 272 3070ft 72kts
15-Feb-19 13:56 34.931019 -119.670753 307 2990ft 79kts
15-Feb-19 13:57 34.942081 -119.690956 292 2754ft 65kts
15-Feb-19 13:58 34.934770 -119.691708 116 2644ft 70kts
15-Feb-19 13:59 34.931444 -119.673751 353 2584ft 66kts
15-Feb-19 14:00 34.937272 -119.689549 231 2263ft 36kts
15-Feb-19 14:01 34.930411 -119.675082 57 2939ft 63kts
15-Feb-19 14:02 34.938827 -119.691994 287 2210ft 46kts
15-Feb-19 14:03 34.939932 -119.693853 22 2206ft 0kts
15-Feb-19 14:04 34.939932 -119.693853 22 2206ft 0kts
15-Feb-19 14:05 34.939932 -119.693853 22 2206ft 0kts
15-Feb-19 14:06 34.939932 -119.693853 22 2206ft 0kts
15-Feb-19 14:07 34.939932 -119.693853 22 2206ft 0kts
15-Feb-19 14:08 34.939932 -119.693853 22 2206ft 0kts
15-Feb-19 14:09 34.939932 -119.693853 22 2206ft 0kts
15-Feb-19 14:10 34.939932 -119.693853 22 2206ft 0kts
15-Feb-19 14:11 34.939932 -119.693853 22 2206ft 0kts
15-Feb-19 14:12 34.939932 -119.693853 22 2206ft 0kts
15-Feb-19 14:13 34.939932 -119.693853 22 2206ft 0kts
15-Feb-19 14:14 34.939932 -119.693853 22 2206ft 0kts

Navigation Log

Ident Type
Flight plan parsing failed, navigation log unavailable